sensor_id;sensor_type;location;lat;lon;timestamp;pressure;altitude;pressure_sealevel;temperature;humidity
6668;BME280;3370;47.712;9.082;2023-08-06T00:00:27;96467.16;;;14.63;100.00
6668;BME280;3370;47.712;9.082;2023-08-06T00:02:53;96459.81;;;14.56;100.00
6668;BME280;3370;47.712;9.082;2023-08-06T00:05:19;96466.34;;;14.62;100.00
6668;BME280;3370;47.712;9.082;2023-08-06T00:07:50;96457.97;;;14.59;100.00
6668;BME280;3370;47.712;9.082;2023-08-06T00:10:17;96457.22;;;14.56;100.00
6668;BME280;3370;47.712;9.082;2023-08-06T00:12:43;96457.66;;;14.63;100.00
6668;BME280;3370;47.712;9.082;2023-08-06T00:15:10;96457.41;;;14.66;100.00
6668;BME280;3370;47.712;9.082;2023-08-06T00:17:36;96457.88;;;14.60;100.00
6668;BME280;3370;47.712;9.082;2023-08-06T00:20:04;96461.94;;;14.75;100.00
6668;BME280;3370;47.712;9.082;2023-08-06T00:22:38;96452.69;;;14.60;100.00
6668;BME280;3370;47.712;9.082;2023-08-06T00:25:05;96464.69;;;14.61;100.00
6668;BME280;3370;47.712;9.082;2023-08-06T00:27:31;96456.00;;;14.62;100.00
6668;BME280;3370;47.712;9.082;2023-08-06T00:29:58;96460.13;;;14.65;100.00
6668;BME280;3370;47.712;9.082;2023-08-06T00:32:24;96454.53;;;14.71;100.00
6668;BME280;3370;47.712;9.082;2023-08-06T00:34:50;96446.34;;;14.64;100.00
6668;BME280;3370;47.712;9.082;2023-08-06T00:37:16;96432.81;;;14.61;100.00
6668;BME280;3370;47.712;9.082;2023-08-06T00:39:43;96437.34;;;14.57;100.00
6668;BME280;3370;47.712;9.082;2023-08-06T00:42:10;96425.88;;;14.61;100.00
6668;BME280;3370;47.712;9.082;2023-08-06T00:44:37;96434.84;;;14.68;100.00
6668;BME280;3370;47.712;9.082;2023-08-06T00:47:04;96424.50;;;14.55;100.00
6668;BME280;3370;47.712;9.082;2023-08-06T00:49:29;96428.47;;;14.61;100.00
6668;BME280;3370;47.712;9.082;2023-08-06T00:51:56;96420.19;;;14.56;100.00
6668;BME280;3370;47.712;9.082;2023-08-06T00:54:23;96427.34;;;14.52;100.00
6668;BME280;3370;47.712;9.082;2023-08-06T00:56:50;96418.97;;;14.49;100.00
6668;BME280;3370;47.712;9.082;2023-08-06T00:59:16;96418.47;;;14.44;100.00
6668;BME280;3370;47.712;9.082;2023-08-06T01:01:42;96409.88;;;14.43;100.00
6668;BME280;3370;47.712;9.082;2023-08-06T01:04:09;96409.47;;;14.36;100.00
6668;BME280;3370;47.712;9.082;2023-08-06T01:15:50;96412.38;;;14.32;100.00
6668;BME280;3370;47.712;9.082;2023-08-06T01:18:20;96403.53;;;14.23;100.00
6668;BME280;3370;47.712;9.082;2023-08-06T01:20:46;96398.22;;;14.25;100.00
6668;BME280;3370;47.712;9.082;2023-08-06T01:23:11;96393.81;;;14.27;100.00
6668;BME280;3370;47.712;9.082;2023-08-06T01:31:05;96383.63;;;14.36;100.00
6668;BME280;3370;47.712;9.082;2023-08-06T01:33:34;96381.53;;;14.42;100.00
6668;BME280;3370;47.712;9.082;2023-08-06T01:36:04;96378.66;;;14.33;100.00
6668;BME280;3370;47.712;9.082;2023-08-06T01:38:31;96378.16;;;14.28;100.00
6668;BME280;3370;47.712;9.082;2023-08-06T01:40:57;96378.66;;;14.33;100.00
6668;BME280;3370;47.712;9.082;2023-08-06T01:43:22;96377.22;;;14.29;100.00
6668;BME280;3370;47.712;9.082;2023-08-06T01:45:48;96377.44;;;14.26;100.00
6668;BME280;3370;47.712;9.082;2023-08-06T01:48:14;96383.97;;;14.19;100.00
6668;BME280;3370;47.712;9.082;2023-08-06T01:50:40;96390.19;;;14.16;100.00
6668;BME280;3370;47.712;9.082;2023-08-06T01:53:05;96377.88;;;14.20;100.00
6668;BME280;3370;47.712;9.082;2023-08-06T01:55:31;96383.22;;;14.30;100.00
6668;BME280;3370;47.712;9.082;2023-08-06T01:57:57;96383.84;;;14.33;100.00
6668;BME280;3370;47.712;9.082;2023-08-06T02:00:23;96390.16;;;14.29;100.00
6668;BME280;3370;47.712;9.082;2023-08-06T02:02:48;96378.44;;;14.36;100.00
6668;BME280;3370;47.712;9.082;2023-08-06T02:05:14;96371.59;;;14.35;100.00
6668;BME280;3370;47.712;9.082;2023-08-06T02:07:40;96375.56;;;14.28;100.00
6668;BME280;3370;47.712;9.082;2023-08-06T02:10:07;96375.03;;;14.36;100.00
6668;BME280;3370;47.712;9.082;2023-08-06T02:12:32;96367.59;;;14.31;100.00
6668;BME280;3370;47.712;9.082;2023-08-06T02:14:58;96370.19;;;14.31;100.00
6668;BME280;3370;47.712;9.082;2023-08-06T02:17:24;96368.75;;;14.27;100.00
6668;BME280;3370;47.712;9.082;2023-08-06T02:19:50;96366.69;;;14.32;100.00
6668;BME280;3370;47.712;9.082;2023-08-06T02:22:15;96359.56;;;14.47;100.00
6668;BME280;3370;47.712;9.082;2023-08-06T02:24:41;96355.88;;;14.38;100.00
6668;BME280;3370;47.712;9.082;2023-08-06T02:27:07;96357.66;;;14.38;100.00
6668;BME280;3370;47.712;9.082;2023-08-06T02:29:33;96357.16;;;14.33;100.00
6668;BME280;3370;47.712;9.082;2023-08-06T02:31:58;96363.53;;;14.40;100.00
6668;BME280;3370;47.712;9.082;2023-08-06T02:34:26;96359.94;;;14.30;100.00
6668;BME280;3370;47.712;9.082;2023-08-06T02:36:52;96345.59;;;14.26;100.00
6668;BME280;3370;47.712;9.082;2023-08-06T02:39:19;96351.81;;;14.23;100.00
6668;BME280;3370;47.712;9.082;2023-08-06T02:41:45;96353.75;;;14.32;100.00
6668;BME280;3370;47.712;9.082;2023-08-06T02:44:10;96351.22;;;14.44;98.62
6668;BME280;3370;47.712;9.082;2023-08-06T02:46:36;96351.72;;;14.49;97.40
6668;BME280;3370;47.712;9.082;2023-08-06T02:49:02;96343.50;;;14.55;96.11
6668;BME280;3370;47.712;9.082;2023-08-06T02:51:27;96344.38;;;14.43;98.05
6668;BME280;3370;47.712;9.082;2023-08-06T02:53:53;96339.03;;;14.57;96.25
6668;BME280;3370;47.712;9.082;2023-08-06T02:56:19;96336.19;;;14.49;97.73
6668;BME280;3370;47.712;9.082;2023-08-06T02:58:45;96333.09;;;14.44;97.75
6668;BME280;3370;47.712;9.082;2023-08-06T03:01:10;96335.84;;;14.53;96.89
6668;BME280;3370;47.712;9.082;2023-08-06T03:03:36;96338.06;;;14.47;97.52
6668;BME280;3370;47.712;9.082;2023-08-06T03:06:02;96328.75;;;14.44;96.71
6668;BME280;3370;47.712;9.082;2023-08-06T03:08:28;96321.09;;;14.43;94.41
6668;BME280;3370;47.712;9.082;2023-08-06T03:10:54;96328.16;;;14.41;93.16
6668;BME280;3370;47.712;9.082;2023-08-06T03:13:20;96314.50;;;14.38;93.93
6668;BME280;3370;47.712;9.082;2023-08-06T03:16:12;96319.69;;;14.38;92.95
6668;BME280;3370;47.712;9.082;2023-08-06T03:18:38;96310.38;;;14.36;93.79
6668;BME280;3370;47.712;9.082;2023-08-06T03:21:04;96319.28;;;14.32;92.65
6668;BME280;3370;47.712;9.082;2023-08-06T03:23:29;96318.16;;;14.36;92.12
6668;BME280;3370;47.712;9.082;2023-08-06T03:25:55;96312.63;;;14.41;91.99
6668;BME280;3370;47.712;9.082;2023-08-06T03:28:21;96305.75;;;14.28;92.17
6668;BME280;3370;47.712;9.082;2023-08-06T03:30:47;96308.13;;;14.31;92.23
6668;BME280;3370;47.712;9.082;2023-08-06T03:33:14;96316.47;;;14.35;91.60
6668;BME280;3370;47.712;9.082;2023-08-06T03:35:40;96324.34;;;14.33;92.29
6668;BME280;3370;47.712;9.082;2023-08-06T03:38:05;96320.38;;;14.41;89.83
6668;BME280;3370;47.712;9.082;2023-08-06T03:40:31;96322.56;;;14.34;90.68
6668;BME280;3370;47.712;9.082;2023-08-06T03:42:57;96323.63;;;14.31;92.00
6668;BME280;3370;47.712;9.082;2023-08-06T03:45:23;96318.34;;;14.33;89.76
6668;BME280;3370;47.712;9.082;2023-08-06T03:47:48;96322.81;;;14.31;91.41
6668;BME280;3370;47.712;9.082;2023-08-06T03:50:14;96318.69;;;14.28;93.83
6668;BME280;3370;47.712;9.082;2023-08-06T03:52:40;96323.94;;;14.40;92.26
6668;BME280;3370;47.712;9.082;2023-08-06T03:55:06;96326.94;;;14.33;92.94
6668;BME280;3370;47.712;9.082;2023-08-06T03:57:32;96330.47;;;14.32;92.79
6668;BME280;3370;47.712;9.082;2023-08-06T03:59:58;96318.25;;;14.34;92.37
6668;BME280;3370;47.712;9.082;2023-08-06T04:02:23;96319.88;;;14.35;90.73
6668;BME280;3370;47.712;9.082;2023-08-06T04:04:49;96318.97;;;14.36;90.21
6668;BME280;3370;47.712;9.082;2023-08-06T04:07:15;96326.16;;;14.44;90.72
6668;BME280;3370;47.712;9.082;2023-08-06T04:09:58;96328.44;;;14.49;89.47
6668;BME280;3370;47.712;9.082;2023-08-06T04:12:24;96331.72;;;14.51;91.17
6668;BME280;3370;47.712;9.082;2023-08-06T04:14:51;96330.38;;;14.58;88.98
6668;BME280;3370;47.712;9.082;2023-08-06T04:17:20;96325.13;;;14.71;87.59
6668;BME280;3370;47.712;9.082;2023-08-06T04:19:52;96319.56;;;14.64;86.87
6668;BME280;3370;47.712;9.082;2023-08-06T04:22:19;96332.16;;;14.57;90.33
6668;BME280;3370;47.712;9.082;2023-08-06T04:24:45;96331.72;;;14.51;90.63
6668;BME280;3370;47.712;9.082;2023-08-06T04:27:12;96330.78;;;14.52;93.42
6668;BME280;3370;47.712;9.082;2023-08-06T04:29:39;96331.34;;;14.44;92.47
6668;BME280;3370;47.712;9.082;2023-08-06T04:32:08;96337.56;;;14.42;93.12
6668;BME280;3370;47.712;9.082;2023-08-06T04:34:35;96343.09;;;14.24;96.33
6668;BME280;3370;47.712;9.082;2023-08-06T04:37:02;96344.97;;;14.22;96.37
6668;BME280;3370;47.712;9.082;2023-08-06T04:39:28;96356.38;;;14.19;98.77
6668;BME280;3370;47.712;9.082;2023-08-06T04:41:56;96366.41;;;14.11;100.00
6668;BME280;3370;47.712;9.082;2023-08-06T04:44:23;96346.97;;;13.82;100.00
6668;BME280;3370;47.712;9.082;2023-08-06T04:46:49;96354.41;;;13.60;100.00
6668;BME280;3370;47.712;9.082;2023-08-06T04:49:15;96369.91;;;13.73;97.02
6668;BME280;3370;47.712;9.082;2023-08-06T04:51:40;96372.28;;;13.76;99.97
6668;BME280;3370;47.712;9.082;2023-08-06T04:54:06;96371.25;;;13.66;100.00
6668;BME280;3370;47.712;9.082;2023-08-06T04:56:32;96371.47;;;13.50;100.00
6668;BME280;3370;47.712;9.082;2023-08-06T04:58:59;96374.03;;;13.50;100.00
6668;BME280;3370;47.712;9.082;2023-08-06T05:01:25;96383.84;;;13.45;100.00
6668;BME280;3370;47.712;9.082;2023-08-06T05:03:51;96371.16;;;13.42;100.00
6668;BME280;3370;47.712;9.082;2023-08-06T05:06:16;96378.91;;;13.42;100.00
6668;BME280;3370;47.712;9.082;2023-08-06T05:08:42;96382.13;;;13.33;100.00
6668;BME280;3370;47.712;9.082;2023-08-06T05:11:09;96385.22;;;13.38;100.00
6668;BME280;3370;47.712;9.082;2023-08-06T05:13:35;96395.47;;;13.25;100.00
6668;BME280;3370;47.712;9.082;2023-08-06T05:16:01;96393.41;;;13.17;100.00
6668;BME280;3370;47.712;9.082;2023-08-06T05:18:26;96404.34;;;13.08;100.00
6668;BME280;3370;47.712;9.082;2023-08-06T05:20:52;96402.91;;;13.04;100.00
6668;BME280;3370;47.712;9.082;2023-08-06T05:23:18;96404.13;;;12.98;100.00
6668;BME280;3370;47.712;9.082;2023-08-06T05:25:44;96404.31;;;12.95;100.00
6668;BME280;3370;47.712;9.082;2023-08-06T05:28:09;96407.00;;;12.94;100.00
6668;BME280;3370;47.712;9.082;2023-08-06T05:30:39;96408.84;;;12.92;100.00
6668;BME280;3370;47.712;9.082;2023-08-06T05:33:05;96406.81;;;12.97;100.00
6668;BME280;3370;47.712;9.082;2023-08-06T05:35:31;96412.16;;;12.94;100.00
6668;BME280;3370;47.712;9.082;2023-08-06T05:37:57;96410.91;;;12.87;100.00
6668;BME280;3370;47.712;9.082;2023-08-06T05:40:23;96424.19;;;12.80;100.00
6668;BME280;3370;47.712;9.082;2023-08-06T05:42:53;96419.03;;;12.80;100.00
6668;BME280;3370;47.712;9.082;2023-08-06T05:45:19;96432.94;;;12.78;100.00
6668;BME280;3370;47.712;9.082;2023-08-06T05:47:45;96472.13;;;12.70;100.00
6668;BME280;3370;47.712;9.082;2023-08-06T05:50:10;96440.31;;;12.57;100.00
6668;BME280;3370;47.712;9.082;2023-08-06T05:52:36;96457.00;;;12.51;100.00
6668;BME280;3370;47.712;9.082;2023-08-06T05:55:03;96457.63;;;12.55;100.00
6668;BME280;3370;47.712;9.082;2023-08-06T05:57:28;96448.53;;;12.49;100.00
6668;BME280;3370;47.712;9.082;2023-08-06T05:59:54;96450.41;;;12.60;100.00
6668;BME280;3370;47.712;9.082;2023-08-06T06:02:20;96450.78;;;12.68;100.00
6668;BME280;3370;47.712;9.082;2023-08-06T06:04:46;96449.66;;;12.72;100.00
6668;BME280;3370;47.712;9.082;2023-08-06T06:07:11;96443.91;;;12.81;100.00
6668;BME280;3370;47.712;9.082;2023-08-06T06:09:37;96458.09;;;12.74;100.00
6668;BME280;3370;47.712;9.082;2023-08-06T06:12:05;96451.13;;;12.76;100.00
6668;BME280;3370;47.712;9.082;2023-08-06T06:14:31;96448.63;;;12.75;100.00
6668;BME280;3370;47.712;9.082;2023-08-06T06:16:59;96458.50;;;12.68;100.00
6668;BME280;3370;47.712;9.082;2023-08-06T06:19:25;96452.75;;;12.77;100.00
6668;BME280;3370;47.712;9.082;2023-08-06T06:21:51;96459.97;;;12.72;100.00
6668;BME280;3370;47.712;9.082;2023-08-06T06:24:17;96459.97;;;12.72;100.00
6668;BME280;3370;47.712;9.082;2023-08-06T06:26:43;96466.16;;;12.70;100.00
6668;BME280;3370;47.712;9.082;2023-08-06T06:29:08;96460.53;;;12.63;100.00
6668;BME280;3370;47.712;9.082;2023-08-06T06:31:34;96460.25;;;12.68;100.00
6668;BME280;3370;47.712;9.082;2023-08-06T06:34:00;96462.13;;;12.65;100.00
6668;BME280;3370;47.712;9.082;2023-08-06T06:36:26;96454.53;;;12.77;100.00
6668;BME280;3370;47.712;9.082;2023-08-06T06:38:52;96459.06;;;12.73;100.00
6668;BME280;3370;47.712;9.082;2023-08-06T06:41:18;96463.03;;;12.92;99.96
6668;BME280;3370;47.712;9.082;2023-08-06T06:43:44;96455.34;;;13.04;98.33
6668;BME280;3370;47.712;9.082;2023-08-06T06:46:10;96462.56;;;13.12;98.12
6668;BME280;3370;47.712;9.082;2023-08-06T06:48:36;96466.22;;;13.22;97.60
6668;BME280;3370;47.712;9.082;2023-08-06T06:51:02;96475.09;;;13.18;97.98
6668;BME280;3370;47.712;9.082;2023-08-06T06:53:28;96462.25;;;13.04;97.80
6668;BME280;3370;47.712;9.082;2023-08-06T06:55:55;96478.47;;;13.06;100.00
6668;BME280;3370;47.712;9.082;2023-08-06T06:58:21;96477.66;;;13.06;99.83
6668;BME280;3370;47.712;9.082;2023-08-06T07:00:48;96474.56;;;13.13;100.00
6668;BME280;3370;47.712;9.082;2023-08-06T07:03:15;96472.91;;;13.12;98.82
6668;BME280;3370;47.712;9.082;2023-08-06T07:05:41;96487.28;;;12.89;100.00
6668;BME280;3370;47.712;9.082;2023-08-06T07:08:08;96488.50;;;12.83;100.00
6668;BME280;3370;47.712;9.082;2023-08-06T07:10:34;96488.00;;;12.64;100.00
6668;BME280;3370;47.712;9.082;2023-08-06T07:13:00;96487.38;;;12.60;100.00
6668;BME280;3370;47.712;9.082;2023-08-06T07:15:26;96492.59;;;12.73;100.00
6668;BME280;3370;47.712;9.082;2023-08-06T07:17:51;96492.00;;;12.82;100.00
6668;BME280;3370;47.712;9.082;2023-08-06T07:20:17;96491.75;;;12.73;100.00
6668;BME280;3370;47.712;9.082;2023-08-06T07:22:44;96491.38;;;12.79;100.00
6668;BME280;3370;47.712;9.082;2023-08-06T07:25:10;96502.31;;;12.82;100.00
6668;BME280;3370;47.712;9.082;2023-08-06T07:27:36;96494.28;;;12.87;100.00
6668;BME280;3370;47.712;9.082;2023-08-06T07:30:02;96501.94;;;12.89;100.00
6668;BME280;3370;47.712;9.082;2023-08-06T07:32:28;96504.19;;;12.80;100.00
6668;BME280;3370;47.712;9.082;2023-08-06T07:34:54;96513.25;;;12.59;100.00
6668;BME280;3370;47.712;9.082;2023-08-06T07:37:25;96510.59;;;12.46;100.00
6668;BME280;3370;47.712;9.082;2023-08-06T07:39:50;96517.50;;;12.45;100.00
6668;BME280;3370;47.712;9.082;2023-08-06T07:42:16;96523.50;;;12.46;100.00
6668;BME280;3370;47.712;9.082;2023-08-06T07:44:42;96514.53;;;12.52;100.00
6668;BME280;3370;47.712;9.082;2023-08-06T07:47:08;96516.00;;;12.56;100.00
6668;BME280;3370;47.712;9.082;2023-08-06T07:49:33;96512.75;;;12.66;100.00
6668;BME280;3370;47.712;9.082;2023-08-06T07:51:59;96504.53;;;12.74;100.00
6668;BME280;3370;47.712;9.082;2023-08-06T07:54:25;96501.94;;;12.89;100.00
6668;BME280;3370;47.712;9.082;2023-08-06T07:56:51;96508.34;;;12.96;100.00
6668;BME280;3370;47.712;9.082;2023-08-06T07:59:17;96507.25;;;13.00;100.00
6668;BME280;3370;47.712;9.082;2023-08-06T08:01:42;96500.03;;;13.05;100.00
6668;BME280;3370;47.712;9.082;2023-08-06T08:04:08;96495.81;;;13.04;100.00
6668;BME280;3370;47.712;9.082;2023-08-06T08:06:34;96513.34;;;12.99;100.00
6668;BME280;3370;47.712;9.082;2023-08-06T08:09:00;96507.78;;;13.05;100.00
6668;BME280;3370;47.712;9.082;2023-08-06T08:11:26;96507.78;;;13.05;100.00
6668;BME280;3370;47.712;9.082;2023-08-06T08:13:52;96512.94;;;13.05;100.00
6668;BME280;3370;47.712;9.082;2023-08-06T08:16:17;96513.16;;;13.02;100.00
6668;BME280;3370;47.712;9.082;2023-08-06T08:18:43;96518.50;;;12.99;100.00
6668;BME280;3370;47.712;9.082;2023-08-06T08:21:09;96517.81;;;12.82;100.00
6668;BME280;3370;47.712;9.082;2023-08-06T08:23:35;96512.09;;;12.77;100.00
6668;BME280;3370;47.712;9.082;2023-08-06T08:26:01;96511.75;;;12.69;100.00
6668;BME280;3370;47.712;9.082;2023-08-06T08:28:27;96521.22;;;12.69;100.00
6668;BME280;3370;47.712;9.082;2023-08-06T08:30:53;96517.66;;;12.71;100.00
6668;BME280;3370;47.712;9.082;2023-08-06T08:33:20;96519.38;;;12.71;100.00
6668;BME280;3370;47.712;9.082;2023-08-06T08:35:46;96516.16;;;12.67;100.00
6668;BME280;3370;47.712;9.082;2023-08-06T08:38:13;96526.84;;;12.75;100.00
6668;BME280;3370;47.712;9.082;2023-08-06T08:40:45;96525.19;;;12.74;100.00
6668;BME280;3370;47.712;9.082;2023-08-06T08:43:13;96544.19;;;12.73;100.00
6668;BME280;3370;47.712;9.082;2023-08-06T08:45:40;96535.31;;;12.77;100.00
6668;BME280;3370;47.712;9.082;2023-08-06T08:48:10;96532.19;;;12.72;100.00
6668;BME280;3370;47.712;9.082;2023-08-06T08:50:37;96539.75;;;12.75;100.00
6668;BME280;3370;47.712;9.082;2023-08-06T08:53:04;96540.13;;;12.69;100.00
6668;BME280;3370;47.712;9.082;2023-08-06T08:55:31;96548.94;;;12.79;100.00
6668;BME280;3370;47.712;9.082;2023-08-06T08:57:57;96541.94;;;12.81;100.00
6668;BME280;3370;47.712;9.082;2023-08-06T09:00:23;96546.19;;;12.82;100.00
6668;BME280;3370;47.712;9.082;2023-08-06T09:02:50;96557.81;;;12.75;100.00
6668;BME280;3370;47.712;9.082;2023-08-06T09:05:16;96552.00;;;12.72;100.00
6668;BME280;3370;47.712;9.082;2023-08-06T09:07:48;96583.44;;;12.64;100.00
6668;BME280;3370;47.712;9.082;2023-08-06T09:10:16;96562.63;;;12.53;100.00
6668;BME280;3370;47.712;9.082;2023-08-06T09:12:48;96562.81;;;12.50;100.00
6668;BME280;3370;47.712;9.082;2023-08-06T09:15:15;96583.06;;;12.56;100.00
6668;BME280;3370;47.712;9.082;2023-08-06T09:17:41;96572.41;;;12.48;100.00
6668;BME280;3370;47.712;9.082;2023-08-06T09:20:14;96577.91;;;12.56;100.00
6668;BME280;3370;47.712;9.082;2023-08-06T09:22:40;96567.22;;;12.62;100.00
6668;BME280;3370;47.712;9.082;2023-08-06T09:25:07;96577.34;;;12.65;100.00
6668;BME280;3370;47.712;9.082;2023-08-06T09:27:38;96572.19;;;12.65;100.00
6668;BME280;3370;47.712;9.082;2023-08-06T09:30:07;96573.47;;;12.58;100.00
6668;BME280;3370;47.712;9.082;2023-08-06T09:32:46;96578.09;;;12.53;100.00
6668;BME280;3370;47.712;9.082;2023-08-06T09:35:21;96575.88;;;12.61;100.00
6668;BME280;3370;47.712;9.082;2023-08-06T09:37:47;96586.19;;;12.61;100.00
6668;BME280;3370;47.712;9.082;2023-08-06T09:42:52;96569.59;;;12.65;100.00
6668;BME280;3370;47.712;9.082;2023-08-06T09:45:18;96591.31;;;12.90;100.00
6668;BME280;3370;47.712;9.082;2023-08-06T09:47:44;96573.41;;;13.01;100.00
6668;BME280;3370;47.712;9.082;2023-08-06T09:50:20;96584.69;;;13.00;100.00
6668;BME280;3370;47.712;9.082;2023-08-06T09:52:50;96581.69;;;13.20;100.00
6668;BME280;3370;47.712;9.082;2023-08-06T09:55:18;96592.91;;;13.19;100.00
6668;BME280;3370;47.712;9.082;2023-08-06T09:57:44;96572.53;;;13.29;100.00
6668;BME280;3370;47.712;9.082;2023-08-06T10:00:10;96593.84;;;13.33;100.00
6668;BME280;3370;47.712;9.082;2023-08-06T10:02:40;96574.47;;;13.40;100.00
6668;BME280;3370;47.712;9.082;2023-08-06T10:05:08;96580.47;;;13.53;100.00
6668;BME280;3370;47.712;9.082;2023-08-06T10:07:34;96590.69;;;13.82;100.00
6668;BME280;3370;47.712;9.082;2023-08-06T10:10:00;96581.41;;;13.92;97.90
6668;BME280;3370;47.712;9.082;2023-08-06T10:12:31;96592.13;;;13.86;98.58
6668;BME280;3370;47.712;9.082;2023-08-06T10:15:01;96584.69;;;13.82;99.90
6668;BME280;3370;47.712;9.082;2023-08-06T10:17:29;96584.84;;;13.66;100.00
6668;BME280;3370;47.712;9.082;2023-08-06T10:19:56;96584.19;;;13.49;100.00
6668;BME280;3370;47.712;9.082;2023-08-06T10:22:24;96601.97;;;13.12;100.00
6668;BME280;3370;47.712;9.082;2023-08-06T10:24:55;96590.56;;;13.02;100.00
6668;BME280;3370;47.712;9.082;2023-08-06T10:27:22;96613.59;;;12.91;100.00
6668;BME280;3370;47.712;9.082;2023-08-06T10:29:48;96593.59;;;12.94;100.00
6668;BME280;3370;47.712;9.082;2023-08-06T10:32:17;96597.03;;;12.95;100.00
6668;BME280;3370;47.712;9.082;2023-08-06T10:34:58;96600.31;;;13.11;100.00
6668;BME280;3370;47.712;9.082;2023-08-06T10:37:37;96599.50;;;13.11;100.00
6668;BME280;3370;47.712;9.082;2023-08-06T10:40:03;96594.41;;;13.23;100.00
6668;BME280;3370;47.712;9.082;2023-08-06T10:42:31;96614.66;;;13.30;100.00
6668;BME280;3370;47.712;9.082;2023-08-06T10:45:17;96592.81;;;13.35;100.00
6668;BME280;3370;47.712;9.082;2023-08-06T10:47:44;96588.72;;;13.46;100.00
6668;BME280;3370;47.712;9.082;2023-08-06T10:50:17;96604.84;;;13.49;98.49
6668;BME280;3370;47.712;9.082;2023-08-06T10:52:47;96607.19;;;13.79;100.00
6668;BME280;3370;47.712;9.082;2023-08-06T10:55:27;96592.75;;;13.90;99.85
6668;BME280;3370;47.712;9.082;2023-08-06T10:57:54;96594.09;;;13.95;95.60
6668;BME280;3370;47.712;9.082;2023-08-06T11:00:24;96591.34;;;14.24;97.46
6668;BME280;3370;47.712;9.082;2023-08-06T11:02:52;96592.78;;;14.15;94.12
6668;BME280;3370;47.712;9.082;2023-08-06T11:05:18;96606.03;;;14.36;98.30
6668;BME280;3370;47.712;9.082;2023-08-06T11:07:44;96601.97;;;14.07;90.38
6668;BME280;3370;47.712;9.082;2023-08-06T11:10:12;96609.16;;;14.16;96.45
6668;BME280;3370;47.712;9.082;2023-08-06T11:12:39;96607.47;;;14.15;95.32
6668;BME280;3370;47.712;9.082;2023-08-06T11:15:06;96609.53;;;14.10;94.98
6668;BME280;3370;47.712;9.082;2023-08-06T11:17:34;96614.72;;;14.23;93.17
6668;BME280;3370;47.712;9.082;2023-08-06T11:20:02;96599.94;;;14.50;93.28
6668;BME280;3370;47.712;9.082;2023-08-06T11:22:28;96616.63;;;14.59;93.48
6668;BME280;3370;47.712;9.082;2023-08-06T11:24:55;96609.97;;;14.55;93.21
6668;BME280;3370;47.712;9.082;2023-08-06T11:27:20;96610.16;;;14.52;90.96
6668;BME280;3370;47.712;9.082;2023-08-06T11:29:46;96608.53;;;14.25;90.90
6668;BME280;3370;47.712;9.082;2023-08-06T11:32:13;96607.09;;;14.72;87.56
6668;BME280;3370;47.712;9.082;2023-08-06T11:34:39;96607.06;;;14.34;90.76
6668;BME280;3370;47.712;9.082;2023-08-06T11:37:06;96621.22;;;14.28;90.92
6668;BME280;3370;47.712;9.082;2023-08-06T11:39:34;96615.16;;;14.29;89.98
6668;BME280;3370;47.712;9.082;2023-08-06T11:42:03;96620.94;;;14.33;89.98
6668;BME280;3370;47.712;9.082;2023-08-06T11:44:36;96611.75;;;14.29;89.61
6668;BME280;3370;47.712;9.082;2023-08-06T11:47:05;96609.25;;;14.53;89.00
6668;BME280;3370;47.712;9.082;2023-08-06T11:49:48;96620.06;;;14.60;87.30
6668;BME280;3370;47.712;9.082;2023-08-06T11:52:23;96614.88;;;15.09;85.66
6668;BME280;3370;47.712;9.082;2023-08-06T11:55:06;96626.47;;;15.17;85.77
6668;BME280;3370;47.712;9.082;2023-08-06T11:57:34;96628.25;;;15.16;84.58
6668;BME280;3370;47.712;9.082;2023-08-06T12:00:07;96627.16;;;14.82;82.70
6668;BME280;3370;47.712;9.082;2023-08-06T12:02:34;96633.25;;;14.93;82.46
6668;BME280;3370;47.712;9.082;2023-08-06T12:05:21;96636.13;;;15.14;81.44
6668;BME280;3370;47.712;9.082;2023-08-06T12:07:51;96616.22;;;15.52;82.57
6668;BME280;3370;47.712;9.082;2023-08-06T12:10:18;96623.28;;;15.37;83.60
6668;BME280;3370;47.712;9.082;2023-08-06T12:12:47;96621.16;;;14.94;86.66
6668;BME280;3370;47.712;9.082;2023-08-06T12:15:13;96622.41;;;14.75;85.10
6668;BME280;3370;47.712;9.082;2023-08-06T12:17:39;96631.09;;;14.74;87.24
6668;BME280;3370;47.712;9.082;2023-08-06T12:20:06;96623.25;;;14.76;87.22
6668;BME280;3370;47.712;9.082;2023-08-06T12:22:33;96639.38;;;14.54;87.87
6668;BME280;3370;47.712;9.082;2023-08-06T12:25:06;96639.81;;;14.61;88.67
6668;BME280;3370;47.712;9.082;2023-08-06T12:27:34;96660.28;;;14.51;88.14
6668;BME280;3370;47.712;9.082;2023-08-06T12:30:01;96646.28;;;14.41;87.85
6668;BME280;3370;47.712;9.082;2023-08-06T12:32:26;96650.31;;;14.45;86.87
6668;BME280;3370;47.712;9.082;2023-08-06T12:34:52;96640.28;;;14.40;86.52
6668;BME280;3370;47.712;9.082;2023-08-06T12:37:18;96662.31;;;14.33;84.81
6668;BME280;3370;47.712;9.082;2023-08-06T12:39:44;96642.25;;;14.24;85.55
6668;BME280;3370;47.712;9.082;2023-08-06T12:42:10;96646.38;;;14.26;86.62
6668;BME280;3370;47.712;9.082;2023-08-06T12:44:36;96650.72;;;14.13;85.96
6668;BME280;3370;47.712;9.082;2023-08-06T12:47:02;96656.16;;;14.08;88.18
6668;BME280;3370;47.712;9.082;2023-08-06T12:49:28;96665.16;;;14.03;87.20
6668;BME280;3370;47.712;9.082;2023-08-06T12:51:55;96661.25;;;14.10;90.35
6668;BME280;3370;47.712;9.082;2023-08-06T12:54:22;96665.00;;;14.18;90.72
6668;BME280;3370;47.712;9.082;2023-08-06T12:56:48;96671.59;;;14.23;88.85
6668;BME280;3370;47.712;9.082;2023-08-06T12:59:16;96656.00;;;14.24;86.62
6668;BME280;3370;47.712;9.082;2023-08-06T13:01:42;96660.03;;;14.28;87.27
6668;BME280;3370;47.712;9.082;2023-08-06T13:04:08;96679.06;;;14.27;85.43
6668;BME280;3370;47.712;9.082;2023-08-06T13:06:35;96657.56;;;14.27;86.04
6668;BME280;3370;47.712;9.082;2023-08-06T13:09:09;96660.25;;;14.38;85.64
6668;BME280;3370;47.712;9.082;2023-08-06T13:11:36;96670.38;;;14.28;83.05
6668;BME280;3370;47.712;9.082;2023-08-06T13:14:14;96671.63;;;14.35;86.40
6668;BME280;3370;47.712;9.082;2023-08-06T13:16:41;96670.38;;;14.41;86.35
6668;BME280;3370;47.712;9.082;2023-08-06T13:19:08;96670.28;;;14.43;86.11
6668;BME280;3370;47.712;9.082;2023-08-06T13:22:03;96667.41;;;14.34;84.91
6668;BME280;3370;47.712;9.082;2023-08-06T13:24:31;96668.22;;;14.48;87.72
6668;BME280;3370;47.712;9.082;2023-08-06T13:26:57;96661.19;;;14.50;83.88
6668;BME280;3370;47.712;9.082;2023-08-06T13:29:23;96668.34;;;14.59;84.41
6668;BME280;3370;47.712;9.082;2023-08-06T13:31:48;96671.28;;;14.67;83.89